sensor_id;sensor_type;location;lat;lon;timestamp;P1;durP1;ratioP1;P2;durP2;ratioP2
48207;SDS011;33997;53.278;9.708;2023-02-01T00:01:22;20.35;;;2.58;;
48207;SDS011;33997;53.278;9.708;2023-02-01T00:03:48;10.52;;;2.40;;
48207;SDS011;33997;53.278;9.708;2023-02-01T00:06:13;22.48;;;3.35;;
48207;SDS011;33997;53.278;9.708;2023-02-01T00:08:38;13.55;;;2.88;;
48207;SDS011;33997;53.278;9.708;2023-02-01T00:11:05;15.68;;;3.05;;
48207;SDS011;33997;53.278;9.708;2023-02-01T00:13:36;21.52;;;3.33;;
48207;SDS011;33997;53.278;9.708;2023-02-01T00:16:06;20.13;;;3.65;;
48207;SDS011;33997;53.278;9.708;2023-02-01T00:18:33;20.40;;;3.63;;
48207;SDS011;33997;53.278;9.708;2023-02-01T00:20:59;13.15;;;3.42;;
48207;SDS011;33997;53.278;9.708;2023-02-01T00:23:25;17.27;;;3.30;;
48207;SDS011;33997;53.278;9.708;2023-02-01T00:25:51;16.58;;;3.45;;
48207;SDS011;33997;53.278;9.708;2023-02-01T00:28:17;22.73;;;3.65;;
48207;SDS011;33997;53.278;9.708;2023-02-01T00:30:42;18.13;;;3.38;;
48207;SDS011;33997;53.278;9.708;2023-02-01T00:33:08;24.90;;;3.20;;
48207;SDS011;33997;53.278;9.708;2023-02-01T00:35:34;28.88;;;4.30;;
48207;SDS011;33997;53.278;9.708;2023-02-01T00:37:59;18.70;;;3.75;;
48207;SDS011;33997;53.278;9.708;2023-02-01T00:40:25;23.45;;;3.67;;
48207;SDS011;33997;53.278;9.708;2023-02-01T00:42:51;26.45;;;3.80;;
48207;SDS011;33997;53.278;9.708;2023-02-01T00:45:16;26.48;;;4.03;;
48207;SDS011;33997;53.278;9.708;2023-02-01T00:47:42;20.00;;;3.05;;
48207;SDS011;33997;53.278;9.708;2023-02-01T00:50:08;13.02;;;2.97;;
48207;SDS011;33997;53.278;9.708;2023-02-01T00:52:34;21.75;;;3.50;;
48207;SDS011;33997;53.278;9.708;2023-02-01T00:54:59;17.67;;;3.45;;
48207;SDS011;33997;53.278;9.708;2023-02-01T00:57:25;24.98;;;4.05;;
48207;SDS011;33997;53.278;9.708;2023-02-01T00:59:50;17.15;;;3.15;;
48207;SDS011;33997;53.278;9.708;2023-02-01T01:02:16;21.30;;;3.33;;
48207;SDS011;33997;53.278;9.708;2023-02-01T01:04:41;17.40;;;2.83;;
48207;SDS011;33997;53.278;9.708;2023-02-01T01:07:06;21.88;;;3.75;;
48207;SDS011;33997;53.278;9.708;2023-02-01T01:09:32;27.23;;;3.67;;
48207;SDS011;33997;53.278;9.708;2023-02-01T01:11:57;15.82;;;4.07;;
48207;SDS011;33997;53.278;9.708;2023-02-01T01:14:27;16.58;;;3.25;;
48207;SDS011;33997;53.278;9.708;2023-02-01T01:16:56;22.02;;;4.03;;
48207;SDS011;33997;53.278;9.708;2023-02-01T01:19:21;22.92;;;3.63;;
48207;SDS011;33997;53.278;9.708;2023-02-01T01:21:47;16.00;;;3.25;;
48207;SDS011;33997;53.278;9.708;2023-02-01T01:24:12;27.67;;;4.25;;
48207;SDS011;33997;53.278;9.708;2023-02-01T01:26:38;18.45;;;3.53;;
48207;SDS011;33997;53.278;9.708;2023-02-01T01:29:03;23.25;;;3.95;;
48207;SDS011;33997;53.278;9.708;2023-02-01T01:31:29;21.52;;;3.13;;
48207;SDS011;33997;53.278;9.708;2023-02-01T01:33:56;24.42;;;3.58;;
48207;SDS011;33997;53.278;9.708;2023-02-01T01:36:23;25.20;;;3.97;;
48207;SDS011;33997;53.278;9.708;2023-02-01T01:38:49;19.73;;;3.80;;
48207;SDS011;33997;53.278;9.708;2023-02-01T01:41:19;24.27;;;4.05;;
48207;SDS011;33997;53.278;9.708;2023-02-01T01:46:57;22.15;;;3.05;;
48207;SDS011;33997;53.278;9.708;2023-02-01T01:49:23;24.88;;;4.03;;
48207;SDS011;33997;53.278;9.708;2023-02-01T01:51:51;25.45;;;4.35;;
48207;SDS011;33997;53.278;9.708;2023-02-01T01:54:27;22.17;;;4.22;;
48207;SDS011;33997;53.278;9.708;2023-02-01T01:56:59;22.60;;;4.18;;
48207;SDS011;33997;53.278;9.708;2023-02-01T02:01:54;24.15;;;3.45;;
48207;SDS011;33997;53.278;9.708;2023-02-01T02:04:20;20.73;;;4.05;;
48207;SDS011;33997;53.278;9.708;2023-02-01T02:06:47;19.95;;;3.38;;
48207;SDS011;33997;53.278;9.708;2023-02-01T02:09:20;21.92;;;4.15;;
48207;SDS011;33997;53.278;9.708;2023-02-01T02:11:45;21.55;;;3.95;;
48207;SDS011;33997;53.278;9.708;2023-02-01T02:14:12;22.92;;;3.85;;
48207;SDS011;33997;53.278;9.708;2023-02-01T02:19:32;28.08;;;4.18;;
48207;SDS011;33997;53.278;9.708;2023-02-01T02:25:43;19.33;;;3.70;;
48207;SDS011;33997;53.278;9.708;2023-02-01T02:31:38;22.70;;;3.55;;
48207;SDS011;33997;53.278;9.708;2023-02-01T02:39:59;24.00;;;4.13;;
48207;SDS011;33997;53.278;9.708;2023-02-01T02:42:39;23.23;;;3.67;;
48207;SDS011;33997;53.278;9.708;2023-02-01T02:45:54;19.15;;;3.33;;
48207;SDS011;33997;53.278;9.708;2023-02-01T02:48:56;25.25;;;3.25;;
48207;SDS011;33997;53.278;9.708;2023-02-01T02:51:32;23.40;;;4.20;;
48207;SDS011;33997;53.278;9.708;2023-02-01T02:54:23;16.75;;;2.90;;
48207;SDS011;33997;53.278;9.708;2023-02-01T02:57:13;18.17;;;3.50;;
48207;SDS011;33997;53.278;9.708;2023-02-01T03:00:02;30.88;;;4.95;;
48207;SDS011;33997;53.278;9.708;2023-02-01T03:02:50;22.13;;;3.70;;
48207;SDS011;33997;53.278;9.708;2023-02-01T03:05:35;18.48;;;3.67;;
48207;SDS011;33997;53.278;9.708;2023-02-01T03:08:03;18.35;;;3.70;;
48207;SDS011;33997;53.278;9.708;2023-02-01T03:10:37;23.58;;;4.05;;
48207;SDS011;33997;53.278;9.708;2023-02-01T03:13:06;18.75;;;3.60;;
48207;SDS011;33997;53.278;9.708;2023-02-01T03:21:38;17.63;;;2.78;;
48207;SDS011;33997;53.278;9.708;2023-02-01T03:24:23;13.10;;;2.42;;
48207;SDS011;33997;53.278;9.708;2023-02-01T03:27:02;12.70;;;2.28;;
48207;SDS011;33997;53.278;9.708;2023-02-01T03:29:40;16.00;;;2.35;;
48207;SDS011;33997;53.278;9.708;2023-02-01T03:32:14;12.93;;;2.67;;
48207;SDS011;33997;53.278;9.708;2023-02-01T03:34:40;14.07;;;2.83;;
48207;SDS011;33997;53.278;9.708;2023-02-01T03:37:09;13.52;;;1.88;;
48207;SDS011;33997;53.278;9.708;2023-02-01T03:39:41;5.47;;;1.23;;
48207;SDS011;33997;53.278;9.708;2023-02-01T03:42:29;3.50;;;0.75;;
48207;SDS011;33997;53.278;9.708;2023-02-01T03:45:01;4.63;;;1.10;;
48207;SDS011;33997;53.278;9.708;2023-02-01T03:47:33;6.70;;;1.30;;
48207;SDS011;33997;53.278;9.708;2023-02-01T03:50:03;11.02;;;1.50;;
48207;SDS011;33997;53.278;9.708;2023-02-01T03:52:42;12.77;;;1.75;;
48207;SDS011;33997;53.278;9.708;2023-02-01T03:55:12;9.52;;;1.88;;
48207;SDS011;33997;53.278;9.708;2023-02-01T03:57:41;8.02;;;2.17;;
48207;SDS011;33997;53.278;9.708;2023-02-01T04:00:21;11.52;;;2.00;;
48207;SDS011;33997;53.278;9.708;2023-02-01T04:02:48;16.55;;;2.22;;
48207;SDS011;33997;53.278;9.708;2023-02-01T04:05:14;14.43;;;2.40;;
48207;SDS011;33997;53.278;9.708;2023-02-01T04:07:40;9.45;;;2.25;;
48207;SDS011;33997;53.278;9.708;2023-02-01T04:10:06;11.35;;;2.55;;
48207;SDS011;33997;53.278;9.708;2023-02-01T04:12:32;6.93;;;1.23;;
48207;SDS011;33997;53.278;9.708;2023-02-01T04:14:57;8.00;;;1.55;;
48207;SDS011;33997;53.278;9.708;2023-02-01T04:17:23;10.82;;;1.95;;
48207;SDS011;33997;53.278;9.708;2023-02-01T04:19:48;5.75;;;1.23;;
48207;SDS011;33997;53.278;9.708;2023-02-01T04:22:14;3.35;;;1.20;;
48207;SDS011;33997;53.278;9.708;2023-02-01T04:24:40;4.75;;;0.95;;
48207;SDS011;33997;53.278;9.708;2023-02-01T04:27:05;4.18;;;0.98;;
48207;SDS011;33997;53.278;9.708;2023-02-01T04:29:30;4.75;;;0.70;;
48207;SDS011;33997;53.278;9.708;2023-02-01T04:31:56;5.80;;;0.73;;
48207;SDS011;33997;53.278;9.708;2023-02-01T04:34:21;3.40;;;0.90;;
48207;SDS011;33997;53.278;9.708;2023-02-01T04:36:49;2.05;;;0.77;;
48207;SDS011;33997;53.278;9.708;2023-02-01T04:39:15;4.90;;;0.85;;
48207;SDS011;33997;53.278;9.708;2023-02-01T04:41:40;4.72;;;1.13;;
48207;SDS011;33997;53.278;9.708;2023-02-01T04:44:06;6.75;;;1.25;;
48207;SDS011;33997;53.278;9.708;2023-02-01T04:46:37;5.28;;;1.20;;
48207;SDS011;33997;53.278;9.708;2023-02-01T04:49:03;9.10;;;1.55;;
48207;SDS011;33997;53.278;9.708;2023-02-01T04:51:28;7.30;;;1.30;;
48207;SDS011;33997;53.278;9.708;2023-02-01T04:53:55;7.03;;;1.30;;
48207;SDS011;33997;53.278;9.708;2023-02-01T04:56:20;9.20;;;1.75;;
48207;SDS011;33997;53.278;9.708;2023-02-01T04:58:46;3.50;;;1.38;;
48207;SDS011;33997;53.278;9.708;2023-02-01T05:01:11;14.77;;;1.63;;
48207;SDS011;33997;53.278;9.708;2023-02-01T05:03:37;11.73;;;1.92;;
48207;SDS011;33997;53.278;9.708;2023-02-01T05:06:02;7.20;;;2.42;;
48207;SDS011;33997;53.278;9.708;2023-02-01T05:08:29;13.00;;;2.03;;
48207;SDS011;33997;53.278;9.708;2023-02-01T05:10:55;13.68;;;2.20;;
48207;SDS011;33997;53.278;9.708;2023-02-01T05:13:21;8.55;;;2.00;;
48207;SDS011;33997;53.278;9.708;2023-02-01T05:16:05;9.82;;;2.58;;
48207;SDS011;33997;53.278;9.708;2023-02-01T05:18:31;11.93;;;2.15;;
48207;SDS011;33997;53.278;9.708;2023-02-01T05:20:57;9.23;;;1.85;;
48207;SDS011;33997;53.278;9.708;2023-02-01T05:23:22;5.20;;;1.60;;
48207;SDS011;33997;53.278;9.708;2023-02-01T05:25:48;5.40;;;1.50;;
48207;SDS011;33997;53.278;9.708;2023-02-01T05:28:13;5.07;;;1.00;;
48207;SDS011;33997;53.278;9.708;2023-02-01T05:30:39;6.88;;;1.58;;
48207;SDS011;33997;53.278;9.708;2023-02-01T05:33:04;11.00;;;1.55;;
48207;SDS011;33997;53.278;9.708;2023-02-01T05:35:30;6.47;;;1.42;;
48207;SDS011;33997;53.278;9.708;2023-02-01T05:37:55;6.65;;;1.70;;
48207;SDS011;33997;53.278;9.708;2023-02-01T05:40:21;6.57;;;1.50;;
48207;SDS011;33997;53.278;9.708;2023-02-01T05:42:46;10.05;;;2.33;;
48207;SDS011;33997;53.278;9.708;2023-02-01T05:45:12;9.48;;;2.00;;
48207;SDS011;33997;53.278;9.708;2023-02-01T05:47:38;9.30;;;1.92;;
48207;SDS011;33997;53.278;9.708;2023-02-01T05:50:03;8.63;;;1.70;;
48207;SDS011;33997;53.278;9.708;2023-02-01T05:52:30;5.53;;;1.27;;
48207;SDS011;33997;53.278;9.708;2023-02-01T05:54:55;6.20;;;1.08;;
48207;SDS011;33997;53.278;9.708;2023-02-01T05:57:21;5.20;;;1.00;;
48207;SDS011;33997;53.278;9.708;2023-02-01T05:59:46;6.55;;;1.60;;
48207;SDS011;33997;53.278;9.708;2023-02-01T06:02:13;7.93;;;1.67;;
48207;SDS011;33997;53.278;9.708;2023-02-01T06:04:40;7.00;;;1.38;;
48207;SDS011;33997;53.278;9.708;2023-02-01T06:07:06;4.43;;;1.30;;
48207;SDS011;33997;53.278;9.708;2023-02-01T06:09:32;7.97;;;1.40;;
48207;SDS011;33997;53.278;9.708;2023-02-01T06:11:58;4.97;;;1.65;;
48207;SDS011;33997;53.278;9.708;2023-02-01T06:14:25;5.38;;;1.10;;
48207;SDS011;33997;53.278;9.708;2023-02-01T06:16:51;7.75;;;1.88;;
48207;SDS011;33997;53.278;9.708;2023-02-01T06:19:17;7.07;;;1.10;;
48207;SDS011;33997;53.278;9.708;2023-02-01T06:21:42;4.43;;;1.15;;
48207;SDS011;33997;53.278;9.708;2023-02-01T06:24:08;5.90;;;1.20;;
48207;SDS011;33997;53.278;9.708;2023-02-01T06:26:33;3.78;;;0.82;;
48207;SDS011;33997;53.278;9.708;2023-02-01T06:28:59;4.20;;;1.02;;
48207;SDS011;33997;53.278;9.708;2023-02-01T06:31:24;4.40;;;1.02;;
48207;SDS011;33997;53.278;9.708;2023-02-01T06:33:50;5.70;;;0.95;;
48207;SDS011;33997;53.278;9.708;2023-02-01T06:36:16;8.23;;;1.45;;
48207;SDS011;33997;53.278;9.708;2023-02-01T06:38:43;2.53;;;0.95;;
48207;SDS011;33997;53.278;9.708;2023-02-01T06:41:09;3.70;;;0.82;;
48207;SDS011;33997;53.278;9.708;2023-02-01T06:43:36;6.82;;;0.98;;
48207;SDS011;33997;53.278;9.708;2023-02-01T06:46:03;3.72;;;0.90;;
48207;SDS011;33997;53.278;9.708;2023-02-01T06:48:32;5.30;;;1.05;;
48207;SDS011;33997;53.278;9.708;2023-02-01T06:50:58;3.17;;;0.95;;
48207;SDS011;33997;53.278;9.708;2023-02-01T06:53:24;5.18;;;1.10;;
48207;SDS011;33997;53.278;9.708;2023-02-01T06:55:53;9.50;;;1.67;;
48207;SDS011;33997;53.278;9.708;2023-02-01T06:58:19;8.13;;;1.48;;
48207;SDS011;33997;53.278;9.708;2023-02-01T07:00:45;12.35;;;1.83;;
48207;SDS011;33997;53.278;9.708;2023-02-01T07:03:11;12.68;;;2.08;;
48207;SDS011;33997;53.278;9.708;2023-02-01T07:05:36;17.65;;;2.28;;
48207;SDS011;33997;53.278;9.708;2023-02-01T07:08:02;12.50;;;2.67;;
48207;SDS011;33997;53.278;9.708;2023-02-01T07:10:27;12.05;;;2.03;;
48207;SDS011;33997;53.278;9.708;2023-02-01T07:12:56;18.83;;;2.40;;
48207;SDS011;33997;53.278;9.708;2023-02-01T07:15:22;14.35;;;2.50;;
48207;SDS011;33997;53.278;9.708;2023-02-01T07:17:48;16.05;;;2.67;;
48207;SDS011;33997;53.278;9.708;2023-02-01T07:20:14;15.05;;;3.42;;
48207;SDS011;33997;53.278;9.708;2023-02-01T07:22:40;23.30;;;3.10;;
48207;SDS011;33997;53.278;9.708;2023-02-01T07:25:05;22.52;;;3.47;;
48207;SDS011;33997;53.278;9.708;2023-02-01T07:27:33;20.27;;;3.85;;
48207;SDS011;33997;53.278;9.708;2023-02-01T07:29:59;18.92;;;3.22;;
48207;SDS011;33997;53.278;9.708;2023-02-01T07:32:27;16.15;;;2.65;;
48207;SDS011;33997;53.278;9.708;2023-02-01T07:34:53;18.13;;;2.92;;
48207;SDS011;33997;53.278;9.708;2023-02-01T07:37:18;13.20;;;2.20;;
48207;SDS011;33997;53.278;9.708;2023-02-01T07:39:44;13.88;;;2.75;;
48207;SDS011;33997;53.278;9.708;2023-02-01T07:42:09;15.88;;;2.50;;
48207;SDS011;33997;53.278;9.708;2023-02-01T07:44:35;11.80;;;2.20;;
48207;SDS011;33997;53.278;9.708;2023-02-01T07:47:00;18.75;;;3.47;;
48207;SDS011;33997;53.278;9.708;2023-02-01T07:49:26;23.77;;;3.47;;
48207;SDS011;33997;53.278;9.708;2023-02-01T07:51:51;17.58;;;3.10;;
48207;SDS011;33997;53.278;9.708;2023-02-01T07:54:17;17.48;;;3.10;;
48207;SDS011;33997;53.278;9.708;2023-02-01T07:56:42;16.10;;;3.67;;
48207;SDS011;33997;53.278;9.708;2023-02-01T07:59:08;24.58;;;4.22;;
48207;SDS011;33997;53.278;9.708;2023-02-01T08:01:33;21.50;;;3.38;;
48207;SDS011;33997;53.278;9.708;2023-02-01T08:04:00;22.58;;;3.30;;
48207;SDS011;33997;53.278;9.708;2023-02-01T08:06:28;18.65;;;3.38;;
48207;SDS011;33997;53.278;9.708;2023-02-01T08:08:55;21.75;;;3.10;;
48207;SDS011;33997;53.278;9.708;2023-02-01T08:11:21;30.10;;;4.15;;
48207;SDS011;33997;53.278;9.708;2023-02-01T08:13:48;21.17;;;3.30;;
48207;SDS011;33997;53.278;9.708;2023-02-01T08:16:14;26.70;;;3.72;;
48207;SDS011;33997;53.278;9.708;2023-02-01T08:18:41;17.15;;;3.45;;
48207;SDS011;33997;53.278;9.708;2023-02-01T08:21:09;23.30;;;4.88;;
48207;SDS011;33997;53.278;9.708;2023-02-01T08:23:36;22.45;;;3.70;;
48207;SDS011;33997;53.278;9.708;2023-02-01T08:28:39;20.60;;;3.35;;
48207;SDS011;33997;53.278;9.708;2023-02-01T08:31:08;20.63;;;2.97;;
48207;SDS011;33997;53.278;9.708;2023-02-01T08:33:35;22.65;;;3.47;;
48207;SDS011;33997;53.278;9.708;2023-02-01T08:36:02;20.70;;;3.15;;
48207;SDS011;33997;53.278;9.708;2023-02-01T08:38:29;21.45;;;3.05;;
48207;SDS011;33997;53.278;9.708;2023-02-01T08:40:54;24.50;;;4.05;;
48207;SDS011;33997;53.278;9.708;2023-02-01T08:43:20;16.35;;;3.03;;
48207;SDS011;33997;53.278;9.708;2023-02-01T08:45:45;19.20;;;3.15;;
48207;SDS011;33997;53.278;9.708;2023-02-01T08:48:11;24.38;;;3.65;;
48207;SDS011;33997;53.278;9.708;2023-02-01T08:50:36;18.65;;;3.30;;
48207;SDS011;33997;53.278;9.708;2023-02-01T08:53:05;14.48;;;2.30;;
48207;SDS011;33997;53.278;9.708;2023-02-01T08:55:30;19.92;;;2.75;;
48207;SDS011;33997;53.278;9.708;2023-02-01T08:57:56;28.08;;;3.63;;
48207;SDS011;33997;53.278;9.708;2023-02-01T09:00:21;15.27;;;3.05;;
48207;SDS011;33997;53.278;9.708;2023-02-01T09:02:47;19.10;;;2.97;;
48207;SDS011;33997;53.278;9.708;2023-02-01T09:05:12;12.68;;;3.00;;
48207;SDS011;33997;53.278;9.708;2023-02-01T09:07:41;18.05;;;2.97;;
48207;SDS011;33997;53.278;9.708;2023-02-01T09:10:06;15.95;;;2.60;;
48207;SDS011;33997;53.278;9.708;2023-02-01T09:12:33;19.15;;;2.95;;
48207;SDS011;33997;53.278;9.708;2023-02-01T09:14:59;24.25;;;3.47;;
48207;SDS011;33997;53.278;9.708;2023-02-01T09:17:25;17.63;;;3.28;;
48207;SDS011;33997;53.278;9.708;2023-02-01T09:19:51;20.23;;;3.25;;
48207;SDS011;33997;53.278;9.708;2023-02-01T09:22:17;15.88;;;3.05;;
48207;SDS011;33997;53.278;9.708;2023-02-01T09:24:42;26.98;;;3.83;;
48207;SDS011;33997;53.278;9.708;2023-02-01T09:27:08;19.60;;;2.97;;
48207;SDS011;33997;53.278;9.708;2023-02-01T09:29:33;31.20;;;4.13;;
48207;SDS011;33997;53.278;9.708;2023-02-01T09:31:59;17.75;;;4.05;;
48207;SDS011;33997;53.278;9.708;2023-02-01T09:34:24;14.40;;;2.83;;
48207;SDS011;33997;53.278;9.708;2023-02-01T09:36:50;20.45;;;3.50;;
48207;SDS011;33997;53.278;9.708;2023-02-01T09:39:16;20.58;;;3.13;;
48207;SDS011;33997;53.278;9.708;2023-02-01T09:41:59;19.33;;;3.30;;
48207;SDS011;33997;53.278;9.708;2023-02-01T09:47:13;18.42;;;3.17;;
48207;SDS011;33997;53.278;9.708;2023-02-01T09:49:49;15.23;;;2.53;;
48207;SDS011;33997;53.278;9.708;2023-02-01T09:52:26;19.33;;;2.83;;
48207;SDS011;33997;53.278;9.708;2023-02-01T09:55:01;15.25;;;3.92;;
48207;SDS011;33997;53.278;9.708;2023-02-01T09:57:53;15.18;;;2.60;;
48207;SDS011;33997;53.278;9.708;2023-02-01T10:00:25;16.67;;;3.42;;
48207;SDS011;33997;53.278;9.708;2023-02-01T10:02:55;20.30;;;3.03;;
48207;SDS011;33997;53.278;9.708;2023-02-01T10:05:26;22.58;;;3.08;;
48207;SDS011;33997;53.278;9.708;2023-02-01T10:11:03;14.70;;;2.92;;
48207;SDS011;33997;53.278;9.708;2023-02-01T10:16:43;19.52;;;3.20;;
48207;SDS011;33997;53.278;9.708;2023-02-01T10:19:22;16.83;;;3.28;;
48207;SDS011;33997;53.278;9.708;2023-02-01T10:22:00;18.20;;;3.08;;
48207;SDS011;33997;53.278;9.708;2023-02-01T10:27:14;19.35;;;2.97;;
48207;SDS011;33997;53.278;9.708;2023-02-01T10:29:47;9.48;;;2.38;;
48207;SDS011;33997;53.278;9.708;2023-02-01T10:32:20;21.98;;;2.97;;
48207;SDS011;33997;53.278;9.708;2023-02-01T10:34:53;12.85;;;2.42;;
48207;SDS011;33997;53.278;9.708;2023-02-01T10:37:25;18.85;;;3.33;;
48207;SDS011;33997;53.278;9.708;2023-02-01T10:39:57;23.50;;;3.38;;
48207;SDS011;33997;53.278;9.708;2023-02-01T10:42:37;19.58;;;3.67;;
48207;SDS011;33997;53.278;9.708;2023-02-01T10:45:05;17.65;;;2.70;;
48207;SDS011;33997;53.278;9.708;2023-02-01T10:47:31;16.52;;;3.28;;
48207;SDS011;33997;53.278;9.708;2023-02-01T10:50:08;19.05;;;3.60;;
48207;SDS011;33997;53.278;9.708;2023-02-01T10:53:03;19.13;;;3.13;;
48207;SDS011;33997;53.278;9.708;2023-02-01T10:56:09;14.40;;;2.95;;
48207;SDS011;33997;53.278;9.708;2023-02-01T10:58:33;14.95;;;2.50;;
48207;SDS011;33997;53.278;9.708;2023-02-01T11:01:08;14.13;;;2.90;;
48207;SDS011;33997;53.278;9.708;2023-02-01T11:03:56;22.05;;;3.10;;
48207;SDS011;33997;53.278;9.708;2023-02-01T11:09:22;19.70;;;3.30;;
48207;SDS011;33997;53.278;9.708;2023-02-01T11:16:51;13.35;;;2.25;;
48207;SDS011;33997;53.278;9.708;2023-02-01T11:19:23;14.60;;;3.35;;
48207;SDS011;33997;53.278;9.708;2023-02-01T11:21:49;14.82;;;2.78;;
48207;SDS011;33997;53.278;9.708;2023-02-01T11:24:26;17.55;;;3.53;;
48207;SDS011;33997;53.278;9.708;2023-02-01T11:26:58;16.42;;;2.78;;
48207;SDS011;33997;53.278;9.708;2023-02-01T11:29:35;19.30;;;3.67;;
48207;SDS011;33997;53.278;9.708;2023-02-01T11:32:03;21.33;;;3.30;;
48207;SDS011;33997;53.278;9.708;2023-02-01T11:34:36;18.92;;;3.70;;
48207;SDS011;33997;53.278;9.708;2023-02-01T11:37:13;20.00;;;3.90;;
48207;SDS011;33997;53.278;9.708;2023-02-01T11:39:57;16.55;;;3.72;;
48207;SDS011;33997;53.278;9.708;2023-02-01T11:42:28;17.08;;;3.47;;
48207;SDS011;33997;53.278;9.708;2023-02-01T11:47:44;16.48;;;2.50;;
48207;SDS011;33997;53.278;9.708;2023-02-01T11:50:18;6.50;;;1.95;;
48207;SDS011;33997;53.278;9.708;2023-02-01T11:55:39;3.55;;;1.25;;
48207;SDS011;33997;53.278;9.708;2023-02-01T11:58:48;7.93;;;1.30;;
48207;SDS011;33997;53.278;9.708;2023-02-01T12:01:37;5.93;;;1.13;;
48207;SDS011;33997;53.278;9.708;2023-02-01T12:04:47;4.78;;;0.93;;
48207;SDS011;33997;53.278;9.708;2023-02-01T12:07:41;4.68;;;1.05;;
48207;SDS011;33997;53.278;9.708;2023-02-01T12:10:25;1.75;;;0.68;;
48207;SDS011;33997;53.278;9.708;2023-02-01T12:13:17;4.68;;;1.00;;
48207;SDS011;33997;53.278;9.708;2023-02-01T12:15:51;8.65;;;1.35;;
48207;SDS011;33997;53.278;9.708;2023-02-01T12:32:02;4.35;;;0.55;;
48207;SDS011;33997;53.278;9.708;2023-02-01T12:34:34;3.45;;;0.85;;
48207;SDS011;33997;53.278;9.708;2023-02-01T12:37:42;4.25;;;1.00;;
48207;SDS011;33997;53.278;9.708;2023-02-01T12:40:34;4.35;;;0.75;;
48207;SDS011;33997;53.278;9.708;2023-02-01T12:43:07;3.25;;;0.75;;
48207;SDS011;33997;53.278;9.708;2023-02-01T12:45:41;0.93;;;0.50;;
48207;SDS011;33997;53.278;9.708;2023-02-01T12:48:22;1.27;;;0.50;;
48207;SDS011;33997;53.278;9.708;2023-02-01T12:51:06;1.02;;;0.50;;
48207;SDS011;33997;53.278;9.708;2023-02-01T12:53:53;0.22;;;0.22;;
48207;SDS011;33997;53.278;9.708;2023-02-01T12:56:43;0.90;;;0.40;;
48207;SDS011;33997;53.278;9.708;2023-02-01T13:02:08;0.40;;;0.40;;
48207;SDS011;33997;53.278;9.708;2023-02-01T13:05:19;0.43;;;0.32;;
48207;SDS011;33997;53.278;9.708;2023-02-01T13:07:49;3.08;;;0.75;;
48207;SDS011;33997;53.278;9.708;2023-02-01T13:16:05;1.48;;;0.60;;
48207;SDS011;33997;53.278;9.708;2023-02-01T13:18:34;3.65;;;0.75;;
48207;SDS011;33997;53.278;9.708;2023-02-01T13:23:30;1.17;;;0.43;;
48207;SDS011;33997;53.278;9.708;2023-02-01T13:25:59;1.53;;;0.60;;
48207;SDS011;33997;53.278;9.708;2023-02-01T13:28:28;1.77;;;0.57;;
48207;SDS011;33997;53.278;9.708;2023-02-01T13:31:16;0.30;;;0.28;;
48207;SDS011;33997;53.278;9.708;2023-02-01T13:42:48;0.80;;;0.45;;
48207;SDS011;33997;53.278;9.708;2023-02-01T13:45:23;2.45;;;1.10;;
48207;SDS011;33997;53.278;9.708;2023-02-01T13:47:53;2.53;;;0.80;;
48207;SDS011;33997;53.278;9.708;2023-02-01T13:50:37;6.05;;;0.80;;
48207;SDS011;33997;53.278;9.708;2023-02-01T13:55:40;1.67;;;0.75;;
48207;SDS011;33997;53.278;9.708;2023-02-01T13:58:17;2.08;;;1.02;;
48207;SDS011;33997;53.278;9.708;2023-02-01T14:00:45;4.25;;;0.82;;
48207;SDS011;33997;53.278;9.708;2023-02-01T14:03:13;3.10;;;0.50;;
48207;SDS011;33997;53.278;9.708;2023-02-01T14:10:47;5.43;;;0.93;;
48207;SDS011;33997;53.278;9.708;2023-02-01T14:13:26;4.63;;;0.82;;
48207;SDS011;33997;53.278;9.708;2023-02-01T14:23:43;6.97;;;1.20;;
48207;SDS011;33997;53.278;9.708;2023-02-01T14:26:54;7.18;;;1.10;;
48207;SDS011;33997;53.278;9.708;2023-02-01T14:32:05;9.27;;;1.35;;
48207;SDS011;33997;53.278;9.708;2023-02-01T14:34:35;4.97;;;1.02;;
48207;SDS011;33997;53.278;9.708;2023-02-01T14:37:08;10.90;;;1.80;;
48207;SDS011;33997;53.278;9.708;2023-02-01T14:40:03;5.85;;;1.55;;
48207;SDS011;33997;53.278;9.708;2023-02-01T14:42:36;8.23;;;1.50;;
48207;SDS011;33997;53.278;9.708;2023-02-01T14:50:24;5.10;;;0.80;;
48207;SDS011;33997;53.278;9.708;2023-02-01T14:55:39;4.68;;;1.25;;
48207;SDS011;33997;53.278;9.708;2023-02-01T14:58:20;2.75;;;0.68;;
48207;SDS011;33997;53.278;9.708;2023-02-01T15:00:57;3.95;;;0.60;;
48207;SDS011;33997;53.278;9.708;2023-02-01T15:03:34;6.35;;;1.30;;
48207;SDS011;33997;53.278;9.708;2023-02-01T15:06:36;8.90;;;1.92;;
48207;SDS011;33997;53.278;9.708;2023-02-01T15:11:53;4.93;;;1.13;;
48207;SDS011;33997;53.278;9.708;2023-02-01T15:14:22;6.13;;;1.83;;
48207;SDS011;33997;53.278;9.708;2023-02-01T15:16:47;9.73;;;3.25;;
48207;SDS011;33997;53.278;9.708;2023-02-01T15:19:18;6.72;;;2.08;;
48207;SDS011;33997;53.278;9.708;2023-02-01T15:21:47;4.72;;;1.50;;
48207;SDS011;33997;53.278;9.708;2023-02-01T15:24:22;6.10;;;1.30;;
48207;SDS011;33997;53.278;9.708;2023-02-01T15:26:48;7.80;;;1.52;;
48207;SDS011;33997;53.278;9.708;2023-02-01T15:29:14;7.15;;;1.38;;
48207;SDS011;33997;53.278;9.708;2023-02-01T15:34:11;12.88;;;2.10;;
48207;SDS011;33997;53.278;9.708;2023-02-01T15:36:38;9.35;;;1.80;;
48207;SDS011;33997;53.278;9.708;2023-02-01T15:39:14;12.52;;;2.40;;
48207;SDS011;33997;53.278;9.708;2023-02-01T15:41:44;14.88;;;2.50;;
48207;SDS011;33997;53.278;9.708;2023-02-01T15:44:16;10.43;;;1.85;;
48207;SDS011;33997;53.278;9.708;2023-02-01T15:46:53;10.60;;;2.40;;
48207;SDS011;33997;53.278;9.708;2023-02-01T15:49:20;19.77;;;2.30;;
48207;SDS011;33997;53.278;9.708;2023-02-01T15:51:49;14.23;;;2.50;;
48207;SDS011;33997;53.278;9.708;2023-02-01T15:54:20;16.80;;;2.55;;
48207;SDS011;33997;53.278;9.708;2023-02-01T15:56:57;18.08;;;3.13;;
48207;SDS011;33997;53.278;9.708;2023-02-01T15:59:29;13.27;;;3.00;;
48207;SDS011;33997;53.278;9.708;2023-02-01T16:01:59;10.27;;;2.13;;
48207;SDS011;33997;53.278;9.708;2023-02-01T16:04:26;15.77;;;2.85;;
48207;SDS011;33997;53.278;9.708;2023-02-01T16:06:56;21.33;;;2.78;;
48207;SDS011;33997;53.278;9.708;2023-02-01T16:09:35;20.52;;;3.33;;
48207;SDS011;33997;53.278;9.708;2023-02-01T16:12:34;22.20;;;2.58;;
48207;SDS011;33997;53.278;9.708;2023-02-01T16:15:03;18.73;;;2.75;;
48207;SDS011;33997;53.278;9.708;2023-02-01T16:17:29;14.70;;;3.10;;
48207;SDS011;33997;53.278;9.708;2023-02-01T16:19:55;15.70;;;3.28;;
48207;SDS011;33997;53.278;9.708;2023-02-01T16:22:22;21.00;;;3.08;;
48207;SDS011;33997;53.278;9.708;2023-02-01T16:24:47;22.42;;;3.70;;
48207;SDS011;33997;53.278;9.708;2023-02-01T16:27:13;15.75;;;3.78;;
48207;SDS011;33997;53.278;9.708;2023-02-01T16:29:38;27.13;;;3.70;;
48207;SDS011;33997;53.278;9.708;2023-02-01T16:32:04;22.23;;;3.85;;
48207;SDS011;33997;53.278;9.708;2023-02-01T16:34:30;25.67;;;3.50;;
48207;SDS011;33997;53.278;9.708;2023-02-01T16:36:56;25.80;;;3.70;;
48207;SDS011;33997;53.278;9.708;2023-02-01T16:39:22;17.65;;;3.30;;
48207;SDS011;33997;53.278;9.708;2023-02-01T16:41:48;18.95;;;3.17;;
48207;SDS011;33997;53.278;9.708;2023-02-01T16:44:14;24.25;;;3.72;;
48207;SDS011;33997;53.278;9.708;2023-02-01T16:46:41;18.50;;;3.60;;
48207;SDS011;33997;53.278;9.708;2023-02-01T16:49:27;23.02;;;3.63;;
48207;SDS011;33997;53.278;9.708;2023-02-01T16:51:55;18.95;;;3.70;;
48207;SDS011;33997;53.278;9.708;2023-02-01T16:54:22;24.23;;;3.40;;
48207;SDS011;33997;53.278;9.708;2023-02-01T16:56:48;23.27;;;3.03;;
48207;SDS011;33997;53.278;9.708;2023-02-01T16:59:13;20.08;;;2.90;;